createdAt,value
2018-01-30T00:01:33.676Z,96485
2018-01-30T00:04:01.721Z,96494
2018-01-30T00:06:30.533Z,96472
2018-01-30T00:08:58.655Z,96491
2018-01-30T00:11:26.722Z,96488
2018-01-30T00:13:54.769Z,96471
2018-01-30T00:16:22.821Z,96478
2018-01-30T00:18:51.643Z,96480
2018-01-30T00:21:19.701Z,96490
2018-01-30T00:23:48.742Z,96472
2018-01-30T00:26:17.921Z,96478
2018-01-30T00:28:47.101Z,96479
2018-01-30T00:31:15.221Z,96493
2018-01-30T00:33:43.296Z,96467
2018-01-30T00:36:11.343Z,96474
2018-01-30T00:38:39.416Z,96491
2018-01-30T00:41:08.243Z,96485
2018-01-30T00:43:36.313Z,96484
2018-01-30T00:46:04.359Z,96479
2018-01-30T00:48:32.413Z,96488
2018-01-30T00:51:01.232Z,96479
2018-01-30T00:53:29.316Z,96470
2018-01-30T00:55:57.401Z,96480
2018-01-30T00:58:25.450Z,96465
2018-01-30T01:00:53.521Z,96500
2018-01-30T01:03:22.361Z,96495
2018-01-30T01:05:50.461Z,96485
2018-01-30T01:08:18.618Z,96478
2018-01-30T01:10:49.024Z,96493
2018-01-30T01:13:17.550Z,96499
2018-01-30T01:15:48.277Z,96494
2018-01-30T01:18:17.484Z,96484
2018-01-30T01:20:47.483Z,96493
2018-01-30T01:23:15.541Z,96492
2018-01-30T01:25:43.627Z,96490
2018-01-30T01:28:11.666Z,96496
2018-01-30T01:30:40.486Z,96495
2018-01-30T01:33:08.821Z,96475
2018-01-30T01:35:36.982Z,96492
2018-01-30T01:38:05.046Z,96485
2018-01-30T01:40:33.094Z,96483
2018-01-30T01:43:01.145Z,96472
2018-01-30T01:45:29.965Z,96480
2018-01-30T01:47:58.014Z,96473
2018-01-30T01:50:26.845Z,96474
2018-01-30T01:52:54.905Z,96465
2018-01-30T01:55:22.957Z,96459
2018-01-30T01:57:51.798Z,96470
2018-01-30T02:00:19.846Z,96468
2018-01-30T02:02:47.951Z,96469
2018-01-30T02:05:16.037Z,96480
2018-01-30T02:07:44.085Z,96483
2018-01-30T02:10:12.157Z,96487
2018-01-30T02:12:40.210Z,96491
2018-01-30T02:15:09.029Z,96501
2018-01-30T02:17:37.089Z,96495
2018-01-30T02:20:05.931Z,96495
2018-01-30T02:22:34.002Z,96504
2018-01-30T02:25:02.094Z,96501
2018-01-30T02:27:30.157Z,96499
2018-01-30T02:29:58.215Z,96500
2018-01-30T02:32:26.274Z,96499
2018-01-30T02:34:54.328Z,96502
2018-01-30T02:37:23.153Z,96499
2018-01-30T02:39:51.202Z,96499
2018-01-30T02:42:20.029Z,96500
2018-01-30T02:44:49.146Z,96500
2018-01-30T02:47:18.337Z,96504
2018-01-30T02:49:46.833Z,96518
2018-01-30T02:52:14.895Z,96511
2018-01-30T02:54:42.944Z,96518
2018-01-30T02:57:11.006Z,96504
2018-01-30T02:59:39.873Z,96521
2018-01-30T03:02:08.033Z,96526
2018-01-30T03:04:36.082Z,96529
2018-01-30T03:07:04.141Z,96514
2018-01-30T03:09:32.945Z,96503
2018-01-30T03:12:01.017Z,96506
2018-01-30T03:14:29.819Z,96514
2018-01-30T03:16:57.878Z,96518
2018-01-30T03:19:25.998Z,96519
2018-01-30T03:21:54.104Z,96516
2018-01-30T03:24:22.245Z,96512
2018-01-30T03:26:50.334Z,96512
2018-01-30T03:29:18.726Z,96515
2018-01-30T03:31:46.782Z,96512
2018-01-30T03:34:14.866Z,96511
2018-01-30T03:36:42.909Z,96523
2018-01-30T03:39:10.987Z,96505
2018-01-30T03:41:39.093Z,96511
2018-01-30T03:44:07.277Z,96511
2018-01-30T03:46:35.348Z,96524
2018-01-30T03:49:03.447Z,96530
2018-01-30T03:51:31.515Z,96536
2018-01-30T03:53:59.584Z,96512
2018-01-30T03:56:27.625Z,96524
2018-01-30T03:58:55.784Z,96530
2018-01-30T04:01:24.625Z,96535
2018-01-30T04:03:52.676Z,96524
2018-01-30T04:06:20.784Z,96520
2018-01-30T04:08:49.850Z,96540
2018-01-30T04:11:19.214Z,96533
2018-01-30T04:13:47.272Z,96534
2018-01-30T04:16:15.338Z,96545
2018-01-30T04:18:43.401Z,96540
2018-01-30T04:21:12.149Z,96547
2018-01-30T04:23:40.993Z,96560
2018-01-30T04:26:09.070Z,96559
2018-01-30T04:28:37.122Z,96553
2018-01-30T04:31:05.225Z,96544
2018-01-30T04:33:33.338Z,96547
2018-01-30T04:36:01.330Z,96553
2018-01-30T04:38:30.245Z,96559
2018-01-30T04:40:58.353Z,96562
2018-01-30T04:43:26.526Z,96550
2018-01-30T04:45:54.573Z,96560
2018-01-30T04:48:22.681Z,96560
2018-01-30T04:50:50.768Z,96555
2018-01-30T04:53:19.349Z,96553
2018-01-30T04:55:47.441Z,96557
2018-01-30T04:58:15.613Z,96552
2018-01-30T05:00:43.689Z,96558
2018-01-30T05:03:11.743Z,96560
2018-01-30T05:05:39.834Z,96550
2018-01-30T05:08:07.893Z,96560
2018-01-30T05:10:35.948Z,96546
2018-01-30T05:13:04.061Z,96562
2018-01-30T05:15:32.134Z,96556
2018-01-30T05:18:00.190Z,96562
2018-01-30T05:20:28.263Z,96545
2018-01-30T05:22:56.389Z,96560
2018-01-30T05:25:25.237Z,96552
2018-01-30T05:27:53.286Z,96561
2018-01-30T05:30:22.114Z,96553
2018-01-30T05:32:50.173Z,96555
2018-01-30T05:35:18.285Z,96562
2018-01-30T05:37:47.142Z,96558
2018-01-30T05:40:16.369Z,96557
2018-01-30T05:42:44.454Z,96556
2018-01-30T05:45:12.514Z,96554
2018-01-30T05:47:40.568Z,96554
2018-01-30T05:50:08.618Z,96574
2018-01-30T05:52:37.440Z,96560
2018-01-30T05:55:05.566Z,96560
2018-01-30T05:57:33.629Z,96561
2018-01-30T06:00:01.691Z,96562
2018-01-30T06:02:29.786Z,96565
2018-01-30T06:04:57.889Z,96574
2018-01-30T06:07:27.442Z,96582
2018-01-30T06:09:55.485Z,96585
2018-01-30T06:12:24.333Z,96573
2018-01-30T06:14:52.385Z,96569
2018-01-30T06:17:20.449Z,96578
2018-01-30T06:19:48.498Z,96578
2018-01-30T06:22:18.448Z,96575
2018-01-30T06:24:46.489Z,96589
2018-01-30T06:27:15.356Z,96586
2018-01-30T06:29:43.417Z,96581
2018-01-30T06:32:11.497Z,96588
2018-01-30T06:34:39.650Z,96589
2018-01-30T06:37:07.757Z,96583
2018-01-30T06:39:35.835Z,96587
2018-01-30T06:42:03.905Z,96583
2018-01-30T06:44:31.950Z,96600
2018-01-30T06:47:00.009Z,96592
2018-01-30T06:49:28.825Z,96596
2018-01-30T06:51:56.889Z,96600
2018-01-30T06:54:24.946Z,96599
2018-01-30T06:56:52.993Z,96607
2018-01-30T06:59:21.044Z,96609
2018-01-30T07:01:49.115Z,96613
2018-01-30T07:04:19.045Z,96617
2018-01-30T07:06:48.227Z,96620
2018-01-30T07:09:16.272Z,96623
2018-01-30T07:11:45.094Z,96621
2018-01-30T07:14:13.149Z,96612
2018-01-30T07:16:41.997Z,96624
2018-01-30T07:19:10.047Z,96623
2018-01-30T07:21:38.137Z,96615
2018-01-30T07:24:06.207Z,96616
2018-01-30T07:26:34.266Z,96623
2018-01-30T07:29:02.540Z,96624
2018-01-30T07:31:30.657Z,96621
2018-01-30T07:33:58.722Z,96628
2018-01-30T07:36:26.778Z,96628
2018-01-30T07:38:54.825Z,96620
2018-01-30T07:41:23.646Z,96617
2018-01-30T07:43:51.703Z,96631
2018-01-30T07:46:20.558Z,96638
2018-01-30T07:48:48.833Z,96630
2018-01-30T07:51:16.893Z,96621
2018-01-30T07:53:44.976Z,96633
2018-01-30T07:56:13.886Z,96623
2018-01-30T07:58:41.954Z,96621
2018-01-30T08:01:10.150Z,96630
2018-01-30T08:03:38.300Z,96627
2018-01-30T08:06:06.355Z,96634
2018-01-30T08:08:34.432Z,96626
2018-01-30T08:11:02.537Z,96621
2018-01-30T08:13:30.720Z,96616
2018-01-30T08:15:58.790Z,96617
2018-01-30T08:18:26.858Z,96615
2018-01-30T08:20:54.906Z,96612
2018-01-30T08:23:23.021Z,96618
2018-01-30T08:25:51.089Z,96613
2018-01-30T08:28:19.390Z,96608
2018-01-30T08:30:47.452Z,96614
2018-01-30T08:33:15.513Z,96606
2018-01-30T08:35:43.609Z,96614
2018-01-30T08:38:11.661Z,96619
2018-01-30T08:40:39.737Z,96621
2018-01-30T08:43:07.816Z,96621
2018-01-30T08:45:36.608Z,96627
2018-01-30T08:48:04.666Z,96627
2018-01-30T08:50:33.498Z,96634
2018-01-30T08:53:01.577Z,96623
2018-01-30T08:55:29.629Z,96627
2018-01-30T08:57:57.698Z,96627
2018-01-30T09:00:25.806Z,96624
2018-01-30T09:02:53.880Z,96624
2018-01-30T09:05:21.954Z,96626
2018-01-30T09:07:50.005Z,96616
2018-01-30T09:10:18.057Z,96613
2018-01-30T09:12:46.905Z,96624
2018-01-30T09:15:14.965Z,96624
2018-01-30T09:17:43.014Z,96630
2018-01-30T09:20:11.126Z,96626
2018-01-30T09:22:39.293Z,96636
2018-01-30T09:25:07.574Z,96637
2018-01-30T09:27:35.722Z,96622
2018-01-30T09:30:03.838Z,96627
2018-01-30T09:32:32.101Z,96620
2018-01-30T09:35:00.239Z,96643
2018-01-30T09:37:28.425Z,96647
2018-01-30T09:39:57.277Z,96640
2018-01-30T09:42:25.333Z,96631
2018-01-30T09:44:53.398Z,96625
2018-01-30T09:47:21.453Z,96639
2018-01-30T09:49:49.986Z,96644
2018-01-30T09:52:18.059Z,96635
2018-01-30T09:54:46.107Z,96647
2018-01-30T09:57:14.145Z,96636
2018-01-30T09:59:42.989Z,96645
2018-01-30T10:02:11.083Z,96634
2018-01-30T10:04:39.149Z,96645
2018-01-30T10:07:07.251Z,96645
2018-01-30T10:09:35.305Z,96653
2018-01-30T10:12:03.431Z,96641
2018-01-30T10:14:32.303Z,96638
2018-01-30T10:17:00.341Z,96629
2018-01-30T10:19:28.505Z,96629
2018-01-30T10:21:56.538Z,96622
2018-01-30T10:24:24.632Z,96625
2018-01-30T10:26:52.674Z,96621
2018-01-30T10:29:20.733Z,96630
2018-01-30T10:31:48.991Z,96617
2018-01-30T10:34:17.154Z,96616
2018-01-30T10:36:46.018Z,96609
2018-01-30T10:39:14.122Z,96607
2018-01-30T10:41:43.058Z,96613
2018-01-30T10:44:11.094Z,96600
2018-01-30T10:46:39.938Z,96599
2018-01-30T10:49:07.989Z,96596
2018-01-30T10:51:36.045Z,96602
2018-01-30T10:54:04.862Z,96596
2018-01-30T10:56:32.910Z,96593
2018-01-30T10:59:01.751Z,96593
2018-01-30T11:01:29.828Z,96591
2018-01-30T11:03:57.881Z,96590
2018-01-30T11:06:25.930Z,96584
2018-01-30T11:08:54.777Z,96582
2018-01-30T11:11:22.845Z,96580
2018-01-30T11:13:50.969Z,96590
2018-01-30T11:16:20.922Z,96594
2018-01-30T11:18:49.022Z,96573
2018-01-30T11:21:17.066Z,96567
2018-01-30T11:23:45.117Z,96571
2018-01-30T11:26:13.941Z,96572
2018-01-30T11:28:42.020Z,96572
2018-01-30T11:31:10.065Z,96578
2018-01-30T11:33:38.916Z,96564
2018-01-30T11:36:06.970Z,96562
2018-01-30T11:38:35.012Z,96562
2018-01-30T11:41:03.841Z,96560
2018-01-30T11:43:31.900Z,96565
2018-01-30T11:45:59.962Z,96559
2018-01-30T11:48:28.784Z,96567
2018-01-30T11:50:56.885Z,96561
2018-01-30T11:53:24.977Z,96572
2018-01-30T11:55:53.032Z,96554
2018-01-30T11:58:21.528Z,96564
2018-01-30T12:00:49.576Z,96565
2018-01-30T12:03:17.681Z,96568
2018-01-30T12:05:45.748Z,96568
2018-01-30T12:08:13.831Z,96560
2018-01-30T12:10:41.872Z,96564
2018-01-30T12:13:09.924Z,96550
2018-01-30T12:15:38.861Z,96554
2018-01-30T12:18:06.912Z,96549
2018-01-30T12:20:35.013Z,96554
2018-01-30T12:23:03.078Z,96551
2018-01-30T12:25:31.181Z,96550
2018-01-30T12:27:59.257Z,96551
2018-01-30T12:30:27.325Z,96532
2018-01-30T12:32:55.409Z,96543
2018-01-30T12:35:23.445Z,96539
2018-01-30T12:37:52.672Z,96540
2018-01-30T12:40:21.845Z,96547
2018-01-30T12:42:49.904Z,96533
2018-01-30T12:45:18.731Z,96526
2018-01-30T12:47:46.795Z,96526
2018-01-30T12:50:14.845Z,96523
2018-01-30T12:52:43.664Z,96511
2018-01-30T12:55:11.705Z,96508
2018-01-30T12:57:39.775Z,96494
2018-01-30T13:00:07.822Z,96506
2018-01-30T13:02:35.889Z,96503
2018-01-30T13:05:03.954Z,96489
2018-01-30T13:07:32.008Z,96496
2018-01-30T13:10:00.877Z,96485
2018-01-30T13:12:29.035Z,96477
2018-01-30T13:14:57.106Z,96468
2018-01-30T13:17:25.182Z,96479
2018-01-30T13:19:53.266Z,96473
2018-01-30T13:22:22.461Z,96473
2018-01-30T13:24:50.534Z,96469
2018-01-30T13:27:18.605Z,96478
2018-01-30T13:29:46.670Z,96465
2018-01-30T13:32:14.729Z,96467
2018-01-30T13:34:42.825Z,96460
2018-01-30T13:37:11.621Z,96461
2018-01-30T13:39:39.686Z,96452
2018-01-30T13:42:07.742Z,96447
2018-01-30T13:44:35.785Z,96456
2018-01-30T13:47:03.846Z,96465
2018-01-30T13:49:32.729Z,96461
2018-01-30T13:52:00.797Z,96457
2018-01-30T13:54:28.865Z,96458
2018-01-30T13:56:56.973Z,96455
2018-01-30T13:59:25.017Z,96450
2018-01-30T14:01:53.071Z,96449
2018-01-30T14:04:21.177Z,96447
2018-01-30T14:06:49.235Z,96435
2018-01-30T14:09:17.277Z,96453
2018-01-30T14:11:46.108Z,96447
2018-01-30T14:14:14.154Z,96453
2018-01-30T14:16:42.993Z,96466
2018-01-30T14:19:11.042Z,96449
2018-01-30T14:21:39.153Z,96451
2018-01-30T14:24:07.194Z,96450
2018-01-30T14:26:35.307Z,96440
2018-01-30T14:29:03.365Z,96437
2018-01-30T14:31:31.409Z,96449
2018-01-30T14:33:59.481Z,96437
2018-01-30T14:36:28.305Z,96452
2018-01-30T14:38:56.866Z,96446
2018-01-30T14:41:25.702Z,96440
2018-01-30T14:43:53.765Z,96443
2018-01-30T14:46:21.908Z,96427
2018-01-30T14:48:49.925Z,96437
2018-01-30T14:51:18.018Z,96447
2018-01-30T14:53:46.066Z,96438
2018-01-30T14:56:14.109Z,96435
2018-01-30T14:58:42.948Z,96435
2018-01-30T15:01:10.993Z,96436
2018-01-30T15:03:39.118Z,96427
2018-01-30T15:06:07.176Z,96416
2018-01-30T15:08:35.238Z,96419
2018-01-30T15:11:03.286Z,96422
2018-01-30T15:13:32.109Z,96418
2018-01-30T15:16:00.214Z,96425
2018-01-30T15:18:28.273Z,96416
2018-01-30T15:20:56.870Z,96433
2018-01-30T15:23:24.931Z,96434
2018-01-30T15:25:53.808Z,96418
2018-01-30T15:28:21.873Z,96412
2018-01-30T15:30:49.929Z,96420
2018-01-30T15:33:17.987Z,96431
2018-01-30T15:35:46.150Z,96410
2018-01-30T15:38:14.209Z,96418
2018-01-30T15:40:42.319Z,96406
2018-01-30T15:43:10.390Z,96398
2018-01-30T15:45:38.453Z,96406
2018-01-30T15:48:06.510Z,96404
2018-01-30T15:50:34.606Z,96404
2018-01-30T15:53:02.687Z,96404
2018-01-30T15:55:31.485Z,96408
2018-01-30T15:57:59.557Z,96409
2018-01-30T16:00:27.605Z,96406
2018-01-30T16:02:55.687Z,96401
2018-01-30T16:05:25.082Z,96391
2018-01-30T16:07:54.245Z,96395
2018-01-30T16:10:23.072Z,96388
2018-01-30T16:12:51.179Z,96384
2018-01-30T16:15:19.233Z,96393
2018-01-30T16:17:47.285Z,96376
2018-01-30T16:20:16.094Z,96376
2018-01-30T16:22:44.153Z,96373
2018-01-30T16:25:12.986Z,96373
2018-01-30T16:27:41.038Z,96372
2018-01-30T16:30:09.113Z,96371
2018-01-30T16:32:37.929Z,96360
2018-01-30T16:35:05.981Z,96373
2018-01-30T16:37:34.807Z,96368
2018-01-30T16:40:02.849Z,96366
2018-01-30T16:42:30.909Z,96368
2018-01-30T16:44:59.708Z,96358
2018-01-30T16:47:27.762Z,96365
2018-01-30T16:49:56.626Z,96356
2018-01-30T16:52:25.113Z,96347
2018-01-30T16:54:53.165Z,96357
2018-01-30T16:57:22.009Z,96362
2018-01-30T16:59:50.165Z,96354
2018-01-30T17:02:18.342Z,96344
2018-01-30T17:04:46.416Z,96353
2018-01-30T17:07:14.482Z,96355
2018-01-30T17:09:42.549Z,96350
2018-01-30T17:12:10.645Z,96360
2018-01-30T17:14:38.774Z,96350
2018-01-30T17:17:06.904Z,96344
2018-01-30T17:19:34.961Z,96344
2018-01-30T17:22:03.022Z,96346
2018-01-30T17:24:31.087Z,96346
2018-01-30T17:26:59.185Z,96329
2018-01-30T17:29:27.233Z,96328
2018-01-30T17:31:55.567Z,96327
2018-01-30T17:34:23.629Z,96316
2018-01-30T17:36:51.684Z,96306
2018-01-30T17:39:19.792Z,96323
2018-01-30T17:41:47.865Z,96315
2018-01-30T17:44:16.010Z,96312
2018-01-30T17:46:44.088Z,96310
2018-01-30T17:49:12.204Z,96316
2018-01-30T17:51:40.443Z,96320
2018-01-30T17:54:08.565Z,96313
2018-01-30T17:56:36.630Z,96320
2018-01-30T17:59:04.697Z,96319
2018-01-30T18:01:32.809Z,96315
2018-01-30T18:04:00.887Z,96326
2018-01-30T18:06:28.949Z,96318
2018-01-30T18:08:57.013Z,96319
2018-01-30T18:11:26.209Z,96325
2018-01-30T18:13:54.286Z,96316
2018-01-30T18:16:22.347Z,96320
2018-01-30T18:18:50.428Z,96319
2018-01-30T18:21:18.489Z,96322
2018-01-30T18:23:46.537Z,96322
2018-01-30T18:26:15.785Z,96327
2018-01-30T18:28:43.859Z,96328
2018-01-30T18:31:12.001Z,96320
2018-01-30T18:33:41.341Z,96323
2018-01-30T18:36:09.435Z,96320
2018-01-30T18:38:37.537Z,96321
2018-01-30T18:41:06.363Z,96324
2018-01-30T18:43:34.444Z,96335
2018-01-30T18:46:02.501Z,96318
2018-01-30T18:48:31.354Z,96320
2018-01-30T18:50:59.525Z,96320
2018-01-30T18:53:28.152Z,96329
2018-01-30T18:55:56.811Z,96321
2018-01-30T18:58:24.914Z,96322
2018-01-30T19:00:52.973Z,96310
2018-01-30T19:03:21.034Z,96318
2018-01-30T19:05:49.112Z,96322
2018-01-30T19:08:17.224Z,96316
2018-01-30T19:10:45.320Z,96318
2018-01-30T19:13:14.139Z,96310
2018-01-30T19:15:42.194Z,96324
2018-01-30T19:18:10.305Z,96294
2018-01-30T19:20:38.408Z,96307
2018-01-30T19:23:06.507Z,96307
2018-01-30T19:25:35.322Z,96302
2018-01-30T19:28:03.453Z,96309
2018-01-30T19:30:31.571Z,96303
2018-01-30T19:32:59.689Z,96294
2018-01-30T19:35:27.792Z,96300
2018-01-30T19:37:57.882Z,96292
2018-01-30T19:40:26.840Z,96278
2018-01-30T19:42:55.773Z,96285
2018-01-30T19:45:23.952Z,96276
2018-01-30T19:47:52.012Z,96289
2018-01-30T19:50:20.065Z,96277
2018-01-30T19:52:48.949Z,96274
2018-01-30T19:55:17.214Z,96279
2018-01-30T19:57:45.420Z,96271
2018-01-30T20:00:14.349Z,96270
2018-01-30T20:02:42.589Z,96264
2018-01-30T20:05:11.489Z,96262
2018-01-30T20:07:40.299Z,96261
2018-01-30T20:10:08.499Z,96262
2018-01-30T20:12:36.607Z,96263
2018-01-30T20:15:04.753Z,96260
2018-01-30T20:17:37.811Z,96259
2018-01-30T20:20:06.759Z,96254
2018-01-30T20:22:34.838Z,96247
2018-01-30T20:25:02.950Z,96245
2018-01-30T20:27:31.805Z,96243
2018-01-30T20:29:59.889Z,96241
2018-01-30T20:32:29.024Z,96243
2018-01-30T20:34:59.009Z,96243
2018-01-30T20:37:28.905Z,96231
2018-01-30T20:39:58.204Z,96233
2018-01-30T20:42:26.270Z,96222
2018-01-30T20:44:54.428Z,96233
2018-01-30T20:47:23.271Z,96219
2018-01-30T20:49:51.473Z,96222
2018-01-30T20:52:20.371Z,96233
2018-01-30T20:54:48.429Z,96230
2018-01-30T20:57:16.568Z,96216
2018-01-30T20:59:44.682Z,96216
2018-01-30T21:02:12.796Z,96210
2018-01-30T21:04:41.740Z,96211
2018-01-30T21:07:09.854Z,96211
2018-01-30T21:09:38.003Z,96211
2018-01-30T21:12:06.092Z,96205
2018-01-30T21:14:34.213Z,96203
2018-01-30T21:17:03.075Z,96205
2018-01-30T21:19:31.145Z,96204
2018-01-30T21:21:59.199Z,96206
2018-01-30T21:24:27.429Z,96204
2018-01-30T21:26:56.261Z,96219
2018-01-30T21:29:24.318Z,96189
2018-01-30T21:31:52.373Z,96191
2018-01-30T21:34:21.255Z,96187
2018-01-30T21:36:49.322Z,96181
2018-01-30T21:39:17.521Z,96190
2018-01-30T21:41:46.605Z,96184
2018-01-30T21:44:15.615Z,96174
2018-01-30T21:46:44.459Z,96180
2018-01-30T21:49:12.485Z,96169
2018-01-30T21:51:41.360Z,96172
2018-01-30T21:54:09.439Z,96168
2018-01-30T21:56:37.501Z,96170
2018-01-30T21:59:05.562Z,96159
2018-01-30T22:01:33.750Z,96160
2018-01-30T22:04:01.793Z,96165
2018-01-30T22:06:29.946Z,96153
2018-01-30T22:08:57.956Z,96155
2018-01-30T22:11:26.039Z,96153
2018-01-30T22:13:54.093Z,96152
2018-01-30T22:16:22.173Z,96140
2018-01-30T22:18:50.321Z,96139
2018-01-30T22:21:18.491Z,96143
2018-01-30T22:23:46.629Z,96137
2018-01-30T22:26:14.735Z,96134
2018-01-30T22:28:42.785Z,96137
2018-01-30T22:31:10.863Z,96134
2018-01-30T22:33:38.922Z,96146
2018-01-30T22:36:07.014Z,96135
2018-01-30T22:38:35.081Z,96123
2018-01-30T22:41:03.146Z,96128
2018-01-30T22:43:31.206Z,96124
2018-01-30T22:46:00.818Z,96121
